IGOLD EGNT-EGCB
Flight info
| Callsign | IGOLD |
|---|---|
| Flight time | 0h 41m |
| Altitude | 7000 |
| Route | VP396 DCT POL DCT VP345 |
| Aircraft | F260/L-SDGRY/S |
Departure
| Time | 2026-05-05 08:27 |
|---|---|
| Airport | Newcastle International Airport (EGNT) |
Arrival
| Time | 2026-05-05 09:09 |
|---|---|
| Airport | Manchester Barton Aerodrome (EGCB) |
| Time | Latitude | Longitude | Altitude | Speed | Heading |
|---|---|---|---|---|---|
| 2026-05-05 08:21 | 55.03491 | -1.69244 | 244 ft | 0 kts | 246° |
| 2026-05-05 08:22 | 55.03490 | -1.69251 | 244 ft | 0 kts | 266° |
| 2026-05-05 08:23 | 55.03490 | -1.69253 | 244 ft | 0 kts | 269° |
| 2026-05-05 08:23 | 55.03490 | -1.69265 | 244 ft | 0 kts | 287° |
| 2026-05-05 08:24 | 55.03492 | -1.69271 | 244 ft | 0 kts | 296° |
| 2026-05-05 08:24 | 55.03495 | -1.69276 | 244 ft | 2 kts | 341° |
| 2026-05-05 08:24 | 55.03516 | -1.69212 | 243 ft | 3 kts | 70° |
| 2026-05-05 08:25 | 55.03560 | -1.69187 | 243 ft | 11 kts | 336° |
| 2026-05-05 08:25 | 55.03643 | -1.69259 | 243 ft | 15 kts | 333° |
| 2026-05-05 08:25 | 55.03710 | -1.69244 | 243 ft | 14 kts | 70° |
| 2026-05-05 08:25 | 55.03760 | -1.69051 | 241 ft | 20 kts | 67° |
| 2026-05-05 08:26 | 55.03825 | -1.68805 | 238 ft | 24 kts | 68° |
| 2026-05-05 08:26 | 55.03899 | -1.68521 | 235 ft | 27 kts | 59° |
| 2026-05-05 08:26 | 55.03981 | -1.68221 | 232 ft | 28 kts | 64° |
| 2026-05-05 08:26 | 55.04052 | -1.67974 | 230 ft | 9 kts | 346° |
| 2026-05-05 08:27 | 55.04010 | -1.68183 | 231 ft | 51 kts | 237° |
| 2026-05-05 08:27 | 55.03787 | -1.69044 | 260 ft | 95 kts | 248° |
| 2026-05-05 08:27 | 55.03549 | -1.70119 | 501 ft | 99 kts | 250° |
| 2026-05-05 08:27 | 55.03293 | -1.71201 | 920 ft | 97 kts | 241° |
| 2026-05-05 08:28 | 55.02708 | -1.71997 | 1269 ft | 112 kts | 186° |
| 2026-05-05 08:28 | 55.01998 | -1.71518 | 1601 ft | 123 kts | 147° |
| 2026-05-05 08:28 | 55.01211 | -1.70704 | 1847 ft | 141 kts | 144° |
| 2026-05-05 08:28 | 55.00390 | -1.69713 | 2139 ft | 147 kts | 139° |
| 2026-05-05 08:29 | 54.99577 | -1.68588 | 2472 ft | 149 kts | 135° |
| 2026-05-05 08:29 | 54.98830 | -1.67354 | 2783 ft | 151 kts | 134° |
| 2026-05-05 08:29 | 54.97879 | -1.66498 | 3002 ft | 159 kts | 161° |
| 2026-05-05 08:30 | 54.95736 | -1.65479 | 3340 ft | 167 kts | 171° |
| 2026-05-05 08:30 | 54.94583 | -1.65339 | 3523 ft | 167 kts | 175° |
| 2026-05-05 08:30 | 54.93384 | -1.65171 | 3590 ft | 173 kts | 170° |
| 2026-05-05 08:30 | 54.92201 | -1.64793 | 3645 ft | 178 kts | 168° |
| 2026-05-05 08:31 | 54.90963 | -1.64409 | 3749 ft | 178 kts | 168° |
| 2026-05-05 08:31 | 54.89742 | -1.64024 | 3763 ft | 182 kts | 169° |
| 2026-05-05 08:31 | 54.88508 | -1.63657 | 3923 ft | 177 kts | 167° |
| 2026-05-05 08:31 | 54.87299 | -1.63201 | 3966 ft | 181 kts | 166° |
| 2026-05-05 08:32 | 54.86045 | -1.62790 | 3997 ft | 183 kts | 168° |
| 2026-05-05 08:32 | 54.84780 | -1.62426 | 4051 ft | 184 kts | 168° |
| 2026-05-05 08:32 | 54.83589 | -1.62063 | 4055 ft | 186 kts | 169° |
| 2026-05-05 08:32 | 54.82236 | -1.61665 | 4130 ft | 184 kts | 169° |
| 2026-05-05 08:33 | 54.80969 | -1.61352 | 4202 ft | 183 kts | 171° |
| 2026-05-05 08:33 | 54.79702 | -1.61030 | 4200 ft | 186 kts | 170° |
| 2026-05-05 08:33 | 54.78418 | -1.60748 | 4237 ft | 185 kts | 171° |
| 2026-05-05 08:33 | 54.77174 | -1.60311 | 4284 ft | 185 kts | 165° |
| 2026-05-05 08:34 | 54.75932 | -1.59797 | 4317 ft | 185 kts | 163° |
| 2026-05-05 08:34 | 54.74695 | -1.59246 | 4359 ft | 185 kts | 164° |
| 2026-05-05 08:34 | 54.73412 | -1.58699 | 4373 ft | 186 kts | 164° |
| 2026-05-05 08:34 | 54.72166 | -1.58151 | 4373 ft | 187 kts | 164° |
| 2026-05-05 08:35 | 54.70896 | -1.57576 | 4381 ft | 187 kts | 163° |
| 2026-05-05 08:35 | 54.69640 | -1.57024 | 4376 ft | 188 kts | 165° |
| 2026-05-05 08:35 | 54.68371 | -1.56475 | 4413 ft | 187 kts | 165° |
| 2026-05-05 08:35 | 54.67102 | -1.55992 | 4394 ft | 188 kts | 168° |
| 2026-05-05 08:36 | 54.65815 | -1.55635 | 4411 ft | 188 kts | 172° |
| 2026-05-05 08:36 | 54.64519 | -1.55354 | 4440 ft | 187 kts | 172° |
| 2026-05-05 08:36 | 54.63213 | -1.55126 | 4413 ft | 189 kts | 174° |
| 2026-05-05 08:36 | 54.61904 | -1.54900 | 4418 ft | 188 kts | 170° |
| 2026-05-05 08:37 | 54.60662 | -1.54229 | 4385 ft | 190 kts | 154° |
| 2026-05-05 08:37 | 54.59443 | -1.53369 | 4401 ft | 188 kts | 157° |
| 2026-05-05 08:37 | 54.58239 | -1.52604 | 4457 ft | 185 kts | 158° |
| 2026-05-05 08:37 | 54.57024 | -1.51842 | 4428 ft | 188 kts | 161° |
| 2026-05-05 08:38 | 54.55719 | -1.51432 | 4354 ft | 192 kts | 172° |
| 2026-05-05 08:38 | 54.54400 | -1.51100 | 4448 ft | 186 kts | 169° |
| 2026-05-05 08:38 | 54.53138 | -1.50642 | 4457 ft | 187 kts | 167° |
| 2026-05-05 08:38 | 54.51866 | -1.50228 | 4416 ft | 189 kts | 168° |
| 2026-05-05 08:39 | 54.50558 | -1.49887 | 4439 ft | 188 kts | 171° |
| 2026-05-05 08:39 | 54.49284 | -1.49513 | 4453 ft | 187 kts | 170° |
| 2026-05-05 08:39 | 54.47986 | -1.49197 | 4415 ft | 186 kts | 171° |
| 2026-05-05 08:39 | 54.46735 | -1.48737 | 4422 ft | 184 kts | 161° |
| 2026-05-05 08:40 | 54.45508 | -1.48084 | 4382 ft | 184 kts | 161° |
| 2026-05-05 08:40 | 54.44311 | -1.47454 | 4413 ft | 182 kts | 163° |
| 2026-05-05 08:40 | 54.43031 | -1.47090 | 4332 ft | 185 kts | 171° |
| 2026-05-05 08:40 | 54.41790 | -1.46760 | 4383 ft | 181 kts | 169° |
| 2026-05-05 08:41 | 54.40526 | -1.46409 | 4356 ft | 182 kts | 169° |
| 2026-05-05 08:41 | 54.39283 | -1.46064 | 4344 ft | 183 kts | 169° |
| 2026-05-05 08:41 | 54.38014 | -1.45754 | 4317 ft | 183 kts | 173° |
| 2026-05-05 08:41 | 54.36749 | -1.45518 | 4316 ft | 183 kts | 172° |
| 2026-05-05 08:42 | 54.35494 | -1.45138 | 4286 ft | 184 kts | 169° |
| 2026-05-05 08:42 | 54.34224 | -1.44833 | 4231 ft | 185 kts | 172° |
| 2026-05-05 08:42 | 54.32953 | -1.45029 | 4090 ft | 189 kts | 201° |
| 2026-05-05 08:42 | 54.31748 | -1.46053 | 3982 ft | 188 kts | 211° |
| 2026-05-05 08:43 | 54.30668 | -1.47147 | 4110 ft | 179 kts | 212° |
| 2026-05-05 08:43 | 54.29593 | -1.48260 | 4031 ft | 183 kts | 213° |
| 2026-05-05 08:43 | 54.28527 | -1.49450 | 4050 ft | 180 kts | 216° |
| 2026-05-05 08:43 | 54.27514 | -1.50684 | 4058 ft | 179 kts | 217° |
| 2026-05-05 08:44 | 54.26503 | -1.51937 | 4022 ft | 181 kts | 214° |
| 2026-05-05 08:44 | 54.25442 | -1.53097 | 4020 ft | 181 kts | 214° |
| 2026-05-05 08:44 | 54.24406 | -1.54319 | 4022 ft | 180 kts | 216° |
| 2026-05-05 08:44 | 54.23392 | -1.55520 | 4027 ft | 179 kts | 215° |
| 2026-05-05 08:45 | 54.22331 | -1.56677 | 4027 ft | 179 kts | 212° |
| 2026-05-05 08:45 | 54.21275 | -1.57800 | 4019 ft | 179 kts | 213° |
| 2026-05-05 08:45 | 54.20246 | -1.58983 | 4004 ft | 180 kts | 217° |
| 2026-05-05 08:45 | 54.19237 | -1.60227 | 3998 ft | 180 kts | 214° |
| 2026-05-05 08:46 | 54.18182 | -1.61370 | 4007 ft | 179 kts | 213° |
| 2026-05-05 08:46 | 54.17138 | -1.62577 | 3874 ft | 186 kts | 218° |
| 2026-05-05 08:46 | 54.16066 | -1.63724 | 3962 ft | 179 kts | 211° |
| 2026-05-05 08:46 | 54.14982 | -1.64762 | 3963 ft | 180 kts | 211° |
| 2026-05-05 08:47 | 54.13902 | -1.65820 | 3970 ft | 179 kts | 212° |
| 2026-05-05 08:47 | 54.12842 | -1.66938 | 3928 ft | 181 kts | 214° |
| 2026-05-05 08:47 | 54.11791 | -1.68167 | 3882 ft | 183 kts | 217° |
| 2026-05-05 08:47 | 54.10756 | -1.69396 | 3839 ft | 183 kts | 216° |
| 2026-05-05 08:48 | 54.09709 | -1.70652 | 3841 ft | 182 kts | 214° |
| 2026-05-05 08:48 | 54.08624 | -1.71737 | 3808 ft | 182 kts | 212° |
| 2026-05-05 08:48 | 54.07528 | -1.72841 | 3792 ft | 182 kts | 211° |
| 2026-05-05 08:48 | 54.06420 | -1.73889 | 3779 ft | 182 kts | 208° |
| 2026-05-05 08:49 | 54.05267 | -1.74815 | 3744 ft | 183 kts | 206° |
| 2026-05-05 08:49 | 54.04136 | -1.75826 | 3697 ft | 183 kts | 216° |
| 2026-05-05 08:49 | 54.03093 | -1.77046 | 3681 ft | 182 kts | 217° |
| 2026-05-05 08:49 | 54.02103 | -1.78377 | 3682 ft | 180 kts | 222° |
| 2026-05-05 08:50 | 54.01127 | -1.79691 | 3764 ft | 175 kts | 218° |
| 2026-05-05 08:50 | 54.00153 | -1.80876 | 3861 ft | 172 kts | 217° |
| 2026-05-05 08:50 | 53.99182 | -1.82041 | 3940 ft | 171 kts | 218° |
| 2026-05-05 08:50 | 53.98190 | -1.83103 | 4072 ft | 168 kts | 211° |
| 2026-05-05 08:51 | 53.97160 | -1.84113 | 4044 ft | 174 kts | 211° |
| 2026-05-05 08:51 | 53.96132 | -1.85197 | 4109 ft | 172 kts | 214° |
| 2026-05-05 08:51 | 53.95140 | -1.86316 | 4119 ft | 175 kts | 214° |
| 2026-05-05 08:51 | 53.94095 | -1.87434 | 4160 ft | 174 kts | 212° |
| 2026-05-05 08:52 | 53.93059 | -1.88478 | 4223 ft | 173 kts | 212° |
| 2026-05-05 08:52 | 53.92044 | -1.89564 | 4277 ft | 173 kts | 215° |
| 2026-05-05 08:52 | 53.91030 | -1.90664 | 4291 ft | 175 kts | 214° |
| 2026-05-05 08:52 | 53.90013 | -1.91826 | 4316 ft | 175 kts | 215° |
| 2026-05-05 08:53 | 53.89028 | -1.92976 | 4381 ft | 173 kts | 218° |
| 2026-05-05 08:53 | 53.88068 | -1.94250 | 4368 ft | 175 kts | 221° |
| 2026-05-05 08:53 | 53.87091 | -1.95500 | 4376 ft | 176 kts | 215° |
| 2026-05-05 08:53 | 53.86031 | -1.96543 | 4373 ft | 178 kts | 213° |
| 2026-05-05 08:54 | 53.84965 | -1.97596 | 4437 ft | 175 kts | 211° |
| 2026-05-05 08:54 | 53.83895 | -1.98556 | 4475 ft | 175 kts | 209° |
| 2026-05-05 08:54 | 53.82825 | -1.99578 | 4463 ft | 176 kts | 216° |
| 2026-05-05 08:54 | 53.81840 | -2.00750 | 4526 ft | 172 kts | 219° |
| 2026-05-05 08:55 | 53.80906 | -2.01965 | 4592 ft | 171 kts | 221° |
| 2026-05-05 08:55 | 53.80001 | -2.03348 | 4530 ft | 175 kts | 227° |
| 2026-05-05 08:55 | 53.79179 | -2.04835 | 4587 ft | 172 kts | 231° |
| 2026-05-05 08:55 | 53.78338 | -2.06280 | 4609 ft | 175 kts | 218° |
| 2026-05-05 08:56 | 53.77243 | -2.07314 | 4490 ft | 182 kts | 209° |
| 2026-05-05 08:56 | 53.76110 | -2.08281 | 4561 ft | 177 kts | 209° |
| 2026-05-05 08:56 | 53.75021 | -2.09282 | 4640 ft | 173 kts | 211° |
| 2026-05-05 08:56 | 53.74117 | -2.10190 | 4647 ft | 175 kts | 213° |
| 2026-05-05 08:57 | 53.73102 | -2.11424 | 4483 ft | 183 kts | 220° |
| 2026-05-05 08:57 | 53.72102 | -2.12828 | 4223 ft | 192 kts | 223° |
| 2026-05-05 08:57 | 53.71064 | -2.14199 | 4314 ft | 182 kts | 214° |
| 2026-05-05 08:57 | 53.70004 | -2.15327 | 4313 ft | 181 kts | 214° |
| 2026-05-05 08:58 | 53.68937 | -2.16460 | 4280 ft | 182 kts | 213° |
| 2026-05-05 08:58 | 53.67856 | -2.17591 | 4264 ft | 182 kts | 214° |
| 2026-05-05 08:58 | 53.66815 | -2.18739 | 4288 ft | 179 kts | 216° |
| 2026-05-05 08:58 | 53.65800 | -2.19993 | 4257 ft | 181 kts | 220° |
| 2026-05-05 08:59 | 53.64839 | -2.21338 | 4189 ft | 183 kts | 223° |
| 2026-05-05 08:59 | 53.63875 | -2.22754 | 4163 ft | 183 kts | 222° |
| 2026-05-05 08:59 | 53.62848 | -2.24026 | 4177 ft | 182 kts | 217° |
| 2026-05-05 08:59 | 53.61859 | -2.25370 | 4217 ft | 177 kts | 228° |
| 2026-05-05 09:00 | 53.60866 | -2.26667 | 4157 ft | 182 kts | 211° |
| 2026-05-05 09:00 | 53.59772 | -2.27652 | 4237 ft | 178 kts | 211° |
| 2026-05-05 09:00 | 53.58687 | -2.28718 | 4121 ft | 184 kts | 215° |
| 2026-05-05 09:00 | 53.57611 | -2.29874 | 4176 ft | 179 kts | 214° |
| 2026-05-05 09:01 | 53.56580 | -2.31000 | 4168 ft | 180 kts | 216° |
| 2026-05-05 09:01 | 53.55547 | -2.32201 | 4168 ft | 179 kts | 217° |
| 2026-05-05 09:01 | 53.54532 | -2.33439 | 4173 ft | 178 kts | 219° |
| 2026-05-05 09:01 | 53.53553 | -2.34709 | 4131 ft | 182 kts | 218° |
| 2026-05-05 09:02 | 53.52506 | -2.35902 | 4126 ft | 178 kts | 216° |
| 2026-05-05 09:02 | 53.51462 | -2.37050 | 3821 ft | 181 kts | 216° |
| 2026-05-05 09:02 | 53.50423 | -2.38308 | 3455 ft | 184 kts | 221° |
| 2026-05-05 09:02 | 53.49338 | -2.39457 | 3080 ft | 189 kts | 208° |
| 2026-05-05 09:03 | 53.48142 | -2.40413 | 2725 ft | 189 kts | 207° |
| 2026-05-05 09:03 | 53.46978 | -2.41305 | 2500 ft | 183 kts | 206° |
| 2026-05-05 09:03 | 53.45632 | -2.41401 | 1559 ft | 209 kts | 169° |
| 2026-05-05 09:03 | 53.44368 | -2.41078 | 1694 ft | 159 kts | 176° |
| 2026-05-05 09:04 | 53.43357 | -2.41010 | 1676 ft | 131 kts | 189° |
| 2026-05-05 09:04 | 53.42681 | -2.41641 | 1654 ft | 91 kts | 249° |
| 2026-05-05 09:04 | 53.42830 | -2.42358 | 1472 ft | 73 kts | 348° |
| 2026-05-05 09:04 | 53.43383 | -2.42477 | 1196 ft | 83 kts | 353° |
| 2026-05-05 09:05 | 53.43936 | -2.42388 | 1043 ft | 84 kts | 25° |
| 2026-05-05 09:05 | 53.44435 | -2.41799 | 823 ft | 88 kts | 36° |
| 2026-05-05 09:05 | 53.44883 | -2.41210 | 768 ft | 80 kts | 33° |
| 2026-05-05 09:05 | 53.45210 | -2.40462 | 641 ft | 79 kts | 63° |
| 2026-05-05 09:06 | 53.45454 | -2.39677 | 575 ft | 72 kts | 38° |
| 2026-05-05 09:06 | 53.45919 | -2.39329 | 458 ft | 79 kts | 6° |
| 2026-05-05 09:06 | 53.46511 | -2.39181 | 268 ft | 88 kts | 8° |
| 2026-05-05 09:06 | 53.47076 | -2.38917 | 208 ft | 81 kts | 15° |
| 2026-05-05 09:07 | 53.47556 | -2.38502 | 491 ft | 76 kts | 31° |
| 2026-05-05 09:07 | 53.47967 | -2.37881 | 726 ft | 80 kts | 34° |
| 2026-05-05 09:07 | 53.48389 | -2.37269 | 981 ft | 81 kts | 34° |
| 2026-05-05 09:07 | 53.48459 | -2.36430 | 999 ft | 86 kts | 136° |
| 2026-05-05 09:08 | 53.47883 | -2.36488 | 782 ft | 88 kts | 199° |
| 2026-05-05 09:08 | 53.47384 | -2.36978 | 422 ft | 80 kts | 244° |
| 2026-05-05 09:08 | 53.47219 | -2.37871 | 226 ft | 78 kts | 269° |
| 2026-05-05 09:08 | 53.47179 | -2.38751 | 80 ft | 71 kts | 269° |
| 2026-05-05 09:09 | 53.47139 | -2.39385 | 75 ft | 31 kts | 262° |
| 2026-05-05 09:09 | 53.47114 | -2.39490 | 75 ft | 5 kts | 102° |
| 2026-05-05 09:09 | 53.47123 | -2.39425 | 75 ft | 0 kts | 71° |
| 2026-05-05 09:16 | 53.47130 | -2.39390 | 75 ft | 19 kts | 78° |
| 2026-05-05 09:16 | 53.47174 | -2.38818 | 75 ft | 81 kts | 77° |
| 2026-05-05 09:16 | 53.47201 | -2.37803 | 315 ft | 94 kts | 90° |
| 2026-05-05 09:16 | 53.47181 | -2.36678 | 650 ft | 106 kts | 81° |
| 2026-05-05 09:17 | 53.47060 | -2.35324 | 918 ft | 129 kts | 103° |
| 2026-05-05 09:17 | 53.46757 | -2.33860 | 1276 ft | 138 kts | 105° |
| 2026-05-05 09:17 | 53.46434 | -2.32339 | 1653 ft | 140 kts | 105° |
| 2026-05-05 09:17 | 53.46155 | -2.30895 | 2008 ft | 139 kts | 97° |
| 2026-05-05 09:18 | 53.46056 | -2.29401 | 2547 ft | 124 kts | 80° |
| 2026-05-05 09:18 | 53.46113 | -2.27961 | 2971 ft | 122 kts | 80° |
| 2026-05-05 09:18 | 53.46119 | -2.26569 | 3480 ft | 114 kts | 85° |
| 2026-05-05 09:18 | 53.46086 | -2.25281 | 3851 ft | 118 kts | 85° |
| 2026-05-05 09:19 | 53.46100 | -2.23769 | 4012 ft | 134 kts | 82° |
| 2026-05-05 09:19 | 53.46214 | -2.22181 | 4282 ft | 137 kts | 77° |
| 2026-05-05 09:19 | 53.46349 | -2.20556 | 4459 ft | 146 kts | 78° |
| 2026-05-05 09:19 | 53.46487 | -2.18777 | 4552 ft | 156 kts | 79° |
| 2026-05-05 09:20 | 53.46597 | -2.16942 | 4708 ft | 159 kts | 81° |
| 2026-05-05 09:20 | 53.46687 | -2.15140 | 4977 ft | 154 kts | 82° |
| 2026-05-05 09:20 | 53.46799 | -2.13365 | 5161 ft | 154 kts | 78° |
| 2026-05-05 09:20 | 53.46944 | -2.11569 | 5280 ft | 157 kts | 78° |
| 2026-05-05 09:21 | 53.47074 | -2.09764 | 5441 ft | 156 kts | 80° |
| 2026-05-05 09:21 | 53.47203 | -2.07917 | 5487 ft | 162 kts | 79° |
| 2026-05-05 09:21 | 53.47335 | -2.05989 | 5492 ft | 168 kts | 80° |
| 2026-05-05 09:21 | 53.47464 | -2.04011 | 5467 ft | 173 kts | 80° |
| 2026-05-05 09:22 | 53.47621 | -2.02019 | 5492 ft | 173 kts | 78° |
| 2026-05-05 09:22 | 53.47829 | -2.00035 | 5545 ft | 172 kts | 77° |
| 2026-05-05 09:22 | 53.48028 | -1.98050 | 5561 ft | 173 kts | 75° |
| 2026-05-05 09:22 | 53.48271 | -1.96042 | 5536 ft | 176 kts | 75° |
| 2026-05-05 09:23 | 53.48519 | -1.93994 | 5384 ft | 184 kts | 75° |
| 2026-05-05 09:23 | 53.48824 | -1.91857 | 5132 ft | 191 kts | 72° |
| 2026-05-05 09:23 | 53.49144 | -1.89700 | 4783 ft | 201 kts | 71° |
| 2026-05-05 09:23 | 53.49597 | -1.87404 | 4413 ft | 201 kts | 68° |
| 2026-05-05 09:24 | 53.49866 | -1.85198 | 4430 ft | 192 kts | 79° |
| 2026-05-05 09:24 | 53.50031 | -1.83026 | 4429 ft | 186 kts | 79° |
| 2026-05-05 09:24 | 53.50161 | -1.80850 | 4284 ft | 190 kts | 83° |
| 2026-05-05 09:24 | 53.50220 | -1.78668 | 4287 ft | 184 kts | 84° |
| 2026-05-05 09:25 | 53.50259 | -1.76529 | 4325 ft | 180 kts | 85° |
| 2026-05-05 09:25 | 53.50275 | -1.74440 | 4350 ft | 178 kts | 85° |
| 2026-05-05 09:25 | 53.50365 | -1.72337 | 4284 ft | 181 kts | 76° |
| 2026-05-05 09:25 | 53.50570 | -1.70308 | 4358 ft | 177 kts | 77° |
| 2026-05-05 09:26 | 53.50770 | -1.68291 | 4397 ft | 175 kts | 75° |
| 2026-05-05 09:26 | 53.51005 | -1.66268 | 4426 ft | 175 kts | 74° |
| 2026-05-05 09:26 | 53.51252 | -1.64284 | 4507 ft | 173 kts | 76° |
| 2026-05-05 09:26 | 53.51431 | -1.62285 | 4519 ft | 175 kts | 77° |
| 2026-05-05 09:27 | 53.51630 | -1.60269 | 4585 ft | 174 kts | 76° |
| 2026-05-05 09:27 | 53.51833 | -1.58261 | 4604 ft | 175 kts | 76° |
| 2026-05-05 09:27 | 53.52059 | -1.56265 | 4649 ft | 175 kts | 75° |
| 2026-05-05 09:27 | 53.52267 | -1.54259 | 4665 ft | 176 kts | 77° |
| 2026-05-05 09:28 | 53.52482 | -1.52238 | 4690 ft | 175 kts | 75° |
| 2026-05-05 09:28 | 53.52714 | -1.50233 | 4726 ft | 175 kts | 74° |
| 2026-05-05 09:28 | 53.52991 | -1.48226 | 4741 ft | 175 kts | 72° |
| 2026-05-05 09:28 | 53.53295 | -1.46264 | 4768 ft | 175 kts | 71° |
| 2026-05-05 09:29 | 53.53661 | -1.44337 | 4788 ft | 174 kts | 66° |
| 2026-05-05 09:29 | 53.54079 | -1.42412 | 4806 ft | 175 kts | 66° |
| 2026-05-05 09:29 | 53.54545 | -1.40522 | 4821 ft | 174 kts | 61° |
| 2026-05-05 09:29 | 53.55123 | -1.38747 | 4829 ft | 174 kts | 54° |
| 2026-05-05 09:30 | 53.55565 | -1.36841 | 4793 ft | 180 kts | 72° |
| 2026-05-05 09:30 | 53.55824 | -1.34792 | 4800 ft | 179 kts | 80° |
| 2026-05-05 09:30 | 53.55926 | -1.32703 | 4831 ft | 179 kts | 83° |
| 2026-05-05 09:30 | 53.56014 | -1.30626 | 4845 ft | 178 kts | 84° |
| 2026-05-05 09:31 | 53.56036 | -1.28548 | 4853 ft | 179 kts | 86° |
| 2026-05-05 09:31 | 53.56081 | -1.26534 | 4880 ft | 178 kts | 84° |
| 2026-05-05 09:31 | 53.56161 | -1.24435 | 4882 ft | 178 kts | 83° |
| 2026-05-05 09:31 | 53.56253 | -1.22353 | 4898 ft | 177 kts | 80° |
| 2026-05-05 09:32 | 53.56484 | -1.20303 | 4895 ft | 177 kts | 76° |
| 2026-05-05 09:32 | 53.56752 | -1.18265 | 4910 ft | 177 kts | 75° |
| 2026-05-05 09:32 | 53.57008 | -1.16221 | 4921 ft | 177 kts | 76° |
| 2026-05-05 09:32 | 53.57213 | -1.14178 | 4909 ft | 179 kts | 79° |
| 2026-05-05 09:33 | 53.57376 | -1.12110 | 4909 ft | 179 kts | 79° |
| 2026-05-05 09:33 | 53.57588 | -1.10060 | 4914 ft | 178 kts | 76° |
| 2026-05-05 09:33 | 53.57843 | -1.08041 | 4924 ft | 178 kts | 75° |
| 2026-05-05 09:33 | 53.58095 | -1.05971 | 4902 ft | 179 kts | 75° |
| 2026-05-05 09:34 | 53.58317 | -1.03926 | 4949 ft | 177 kts | 77° |
| 2026-05-05 09:34 | 53.58552 | -1.01901 | 4954 ft | 177 kts | 73° |
| 2026-05-05 09:34 | 53.58840 | -0.99892 | 4990 ft | 176 kts | 73° |
| 2026-05-05 09:34 | 53.59121 | -0.97852 | 4937 ft | 181 kts | 78° |
| 2026-05-05 09:35 | 53.59234 | -0.95735 | 4913 ft | 181 kts | 84° |
| 2026-05-05 09:35 | 53.59312 | -0.91523 | 4886 ft | 182 kts | 86° |
| 2026-05-05 09:35 | 53.59278 | -0.89414 | 4897 ft | 181 kts | 91° |
| 2026-05-05 09:36 | 53.59301 | -0.87320 | 4856 ft | 182 kts | 78° |
| 2026-05-05 09:36 | 53.59513 | -0.85172 | 4746 ft | 185 kts | 77° |
| 2026-05-05 09:36 | 53.59760 | -0.82988 | 4436 ft | 195 kts | 76° |
| 2026-05-05 09:36 | 53.60031 | -0.80791 | 4316 ft | 186 kts | 75° |
| 2026-05-05 09:37 | 53.60269 | -0.78724 | 3995 ft | 177 kts | 77° |
| 2026-05-05 09:37 | 53.60455 | -0.76731 | 3670 ft | 173 kts | 80° |
| 2026-05-05 09:37 | 53.60563 | -0.74718 | 3426 ft | 172 kts | 82° |
| 2026-05-05 09:37 | 53.60645 | -0.72720 | 3330 ft | 173 kts | 80° |
| 2026-05-05 09:38 | 53.60783 | -0.70685 | 3217 ft | 174 kts | 79° |
| 2026-05-05 09:38 | 53.60994 | -0.68709 | 3148 ft | 171 kts | 69° |
| 2026-05-05 09:38 | 53.61357 | -0.66807 | 3040 ft | 172 kts | 69° |
| 2026-05-05 09:38 | 53.61702 | -0.64883 | 2979 ft | 170 kts | 70° |
| 2026-05-05 09:39 | 53.62001 | -0.62971 | 2900 ft | 171 kts | 72° |
| 2026-05-05 09:39 | 53.62258 | -0.61009 | 2806 ft | 172 kts | 74° |
| 2026-05-05 09:39 | 53.62524 | -0.59011 | 2740 ft | 170 kts | 72° |
| 2026-05-05 09:39 | 53.62856 | -0.57090 | 2655 ft | 169 kts | 67° |
| 2026-05-05 09:40 | 53.63302 | -0.55270 | 2615 ft | 165 kts | 60° |
| 2026-05-05 09:40 | 53.63804 | -0.53595 | 2734 ft | 158 kts | 58° |
| 2026-05-05 09:40 | 53.64298 | -0.51983 | 2845 ft | 153 kts | 59° |
| 2026-05-05 09:40 | 53.64760 | -0.50350 | 2857 ft | 155 kts | 59° |
| 2026-05-05 09:41 | 53.65261 | -0.48728 | 2885 ft | 155 kts | 57° |
| 2026-05-05 09:41 | 53.65792 | -0.47166 | 2960 ft | 153 kts | 55° |
| 2026-05-05 09:41 | 53.66305 | -0.45604 | 2988 ft | 155 kts | 60° |
| 2026-05-05 09:41 | 53.66712 | -0.43927 | 3073 ft | 152 kts | 64° |
| 2026-05-05 09:42 | 53.67105 | -0.42266 | 3153 ft | 151 kts | 64° |
| 2026-05-05 09:42 | 53.67489 | -0.40583 | 3126 ft | 156 kts | 64° |
| 2026-05-05 09:42 | 53.67904 | -0.38874 | 3156 ft | 156 kts | 64° |
| 2026-05-05 09:42 | 53.68195 | -0.37090 | 3122 ft | 161 kts | 73° |
| 2026-05-05 09:43 | 53.68586 | -0.35345 | 3128 ft | 158 kts | 59° |
| 2026-05-05 09:43 | 53.69017 | -0.33733 | 3333 ft | 149 kts | 70° |
| 2026-05-05 09:43 | 53.69024 | -0.31870 | 3063 ft | 173 kts | 95° |
| 2026-05-05 09:43 | 53.68861 | -0.29841 | 2823 ft | 173 kts | 97° |
| 2026-05-05 09:44 | 53.68437 | -0.27966 | 2630 ft | 166 kts | 112° |
| 2026-05-05 09:44 | 53.67593 | -0.27263 | 2835 ft | 133 kts | 204° |
| 2026-05-05 09:44 | 53.66872 | -0.28260 | 2591 ft | 140 kts | 226° |
| 2026-05-05 09:44 | 53.66105 | -0.29135 | 2558 ft | 137 kts | 206° |
| 2026-05-05 09:45 | 53.65287 | -0.29668 | 2485 ft | 114 kts | 199° |
| 2026-05-05 09:45 | 53.64529 | -0.30016 | 2322 ft | 118 kts | 195° |
| 2026-05-05 09:45 | 53.63796 | -0.30559 | 2066 ft | 110 kts | 214° |
| 2026-05-05 09:45 | 53.63195 | -0.31149 | 1742 ft | 97 kts | 209° |
| 2026-05-05 09:46 | 53.62585 | -0.31574 | 1352 ft | 95 kts | 204° |
| 2026-05-05 09:46 | 53.61969 | -0.31976 | 922 ft | 94 kts | 204° |
| 2026-05-05 09:46 | 53.61377 | -0.32420 | 761 ft | 92 kts | 205° |
| 2026-05-05 09:46 | 53.60788 | -0.32764 | 676 ft | 86 kts | 201° |
| 2026-05-05 09:47 | 53.60226 | -0.33161 | 567 ft | 91 kts | 205° |
| 2026-05-05 09:47 | 53.59643 | -0.33575 | 453 ft | 93 kts | 201° |
| 2026-05-05 09:47 | 53.59036 | -0.33984 | 314 ft | 92 kts | 204° |
| 2026-05-05 09:47 | 53.58440 | -0.34390 | 161 ft | 92 kts | 202° |
| 2026-05-05 09:48 | 53.57880 | -0.34778 | 94 ft | 80 kts | 202° |
| 2026-05-05 09:48 | 53.57455 | -0.35080 | 94 ft | 52 kts | 200° |
| 2026-05-05 09:48 | 53.57237 | -0.35200 | 101 ft | 9 kts | 204° |
| 2026-05-05 09:48 | 53.57202 | -0.35243 | 102 ft | 3 kts | 221° |
| 2026-05-05 09:49 | 53.57191 | -0.35249 | 103 ft | 7 kts | 62° |
| 2026-05-05 09:49 | 53.57269 | -0.35193 | 100 ft | 16 kts | 18° |
| 2026-05-05 09:49 | 53.57401 | -0.35108 | 96 ft | 23 kts | 22° |
| 2026-05-05 09:49 | 53.57573 | -0.34996 | 90 ft | 28 kts | 24° |
| 2026-05-05 09:50 | 53.57765 | -0.34864 | 86 ft | 27 kts | 22° |
| 2026-05-05 09:50 | 53.57841 | -0.34873 | 85 ft | 9 kts | 296° |
| 2026-05-05 09:50 | 53.57869 | -0.34971 | 85 ft | 11 kts | 319° |
| 2026-05-05 09:50 | 53.57914 | -0.35017 | 85 ft | 8 kts | 316° |
| 2026-05-05 09:51 | 53.57933 | -0.35069 | 85 ft | 0 kts | 290° |